Four Rigoletto — 9HA4672 — position and weather

sailwx.info

Track history (hours):
 
Tides and Currents Weather Stations Pressure Air Temp Water Temp Dewpoint Dewpoint Depression Visibility Wind Speed Wind Dir Waves Ship Positions

Four Rigoletto

Last reported at 2018-May-12 19:32 UTC. Time now 2018-May-27 08:10 UTC.
Position N 09°13' W 079°55'.
Warning: this ship's position is 14 days out of date.

Length 181 m; draft 9 m.

Type: Cargo ship. MMSI: 248189100.

Date/timePositionNaut miles runAvg speedWind from/ knotsBaromVisibWave heightAir tempDewpointWater temp
2018-May-12 19:32N 09°13' W 079°55'0 9.2
2018-May-12 19:29N 09°13' W 079°55'1 1.5
2018-May-12 18:43N 09°14' W 079°56'0 0.0
2018-May-12 18:28N 09°14' W 079°56'0 0.0
2018-May-12 17:58N 09°14' W 079°56'0 0.0
2018-May-12 17:25N 09°14' W 079°56'0 0.0
2018-May-12 16:58N 09°14' W 079°56'0 0.0
2018-May-12 16:22N 09°14' W 079°56'0 0.0
2018-May-12 15:58N 09°14' W 079°56'0 0.0
2018-May-12 13:34N 09°14' W 079°56'0 0.0
2018-May-12 13:22N 09°14' W 079°56'0 0.0
2018-May-12 12:55N 09°14' W 079°56'0 0.0
2018-May-12 10:26N 09°14' W 079°56'0 0.0
2018-May-12 09:56N 09°14' W 079°56'0 0.0
2018-May-12 09:29N 09°14' W 079°56'0 0.0
2018-May-12 09:00N 09°14' W 079°56'0 0.0
2018-May-12 08:04N 09°14' W 079°56'0 0.0
2018-May-12 08:00N 09°14' W 079°56'0 0.0
2018-May-12 07:30N 09°14' W 079°56'0 0.0
2018-May-12 07:00N 09°14' W 079°56'0 0.1
2018-May-12 06:30N 09°14' W 079°56'0 0.1
2018-May-12 06:00N 09°14' W 079°56'0 0.1
2018-May-12 05:30N 09°14' W 079°56'0 0.0
2018-May-12 05:00N 09°14' W 079°56'0 0.0
2018-May-12 04:29N 09°14' W 079°56'0 0.0
2018-May-12 04:00N 09°14' W 079°56'0 0.0
2018-May-12 03:28N 09°14' W 079°56'0 0.0
2018-May-12 03:00N 09°14' W 079°56'0 0.0
2018-May-12 02:30N 09°14' W 079°56'0 0.0
2018-May-12 02:00N 09°14' W 079°56'0 0.0
2018-May-12 01:29N 09°14' W 079°56'0 0.0
2018-May-12 01:00N 09°14' W 079°56'0 0.0
2018-May-12 00:30N 09°14' W 079°56'0 0.1
2018-May-12 00:00N 09°14' W 079°56'0 0.1
2018-May-11 23:30N 09°14' W 079°56'0 0.0
2018-May-11 23:00N 09°14' W 079°56'0 0.0
2018-May-11 22:17N 09°14' W 079°56'0 0.0
2018-May-11 21:59N 09°14' W 079°56'0 0.0
2018-May-11 21:25N 09°14' W 079°56'0 0.0
2018-May-11 20:57N 09°14' W 079°56'0 0.0
2018-May-11 20:30N 09°14' W 079°56'0 0.0
2018-May-11 20:00N 09°14' W 079°56'0 0.0
2018-May-11 19:28N 09°14' W 079°56'0 0.0
2018-May-11 18:58N 09°14' W 079°56'0 0.1
2018-May-11 18:30N 09°14' W 079°56'0 0.1
2018-May-11 18:00N 09°14' W 079°56'0 0.0
2018-May-11 17:29N 09°14' W 079°56'0 0.1
2018-May-11 17:00N 09°14' W 079°56'0 0.0
2018-May-11 16:28N 09°14' W 079°56'0 0.1
2018-May-11 15:31N 09°14' W 079°56'0 0.1
2018-May-11 15:16N 09°14' W 079°56'0 0.1
2018-May-11 14:58N 09°14' W 079°56'0 0.0
2018-May-11 14:13N 09°14' W 079°56'0 0.0
2018-May-11 13:58N 09°14' W 079°56'0 0.0
2018-May-11 12:29N 09°14' W 079°56'0 0.0
2018-May-11 11:36N 09°14' W 079°56'0 0.1
2018-May-11 11:30N 09°14' W 079°56'0 0.0
2018-May-11 11:00N 09°14' W 079°56'0 0.0
2018-May-11 10:30N 09°14' W 079°56'0 0.0
2018-May-11 10:00N 09°14' W 079°56'0 0.0
2018-May-11 09:29N 09°14' W 079°56'0 0.0
2018-May-11 08:51N 09°14' W 079°56'0 0.0
2018-May-11 08:30N 09°14' W 079°56'0 0.1
2018-May-11 08:00N 09°14' W 079°56'0 0.1
2018-May-11 07:30N 09°14' W 079°56'0 0.1
2018-May-11 07:00N 09°14' W 079°56'2 3.9
2018-May-11 06:30N 09°16' W 079°55'0 0.8
2018-May-11 06:00N 09°16' W 079°55'0 0.5
2018-May-11 05:30N 09°17' W 079°55'1 1.4
2018-May-11 05:00N 09°17' W 079°55'2 4.6
2018-May-11 04:30N 09°20' W 079°55'3 6.4
2018-May-11 04:00N 09°23' W 079°56'0 0.1
2018-May-11 03:29N 09°23' W 079°56'0 0.0
2018-May-11 02:59N 09°23' W 079°56'0 0.1
2018-May-11 02:30N 09°23' W 079°56'0 0.0
2018-May-11 01:59N 09°23' W 079°56'0 0.0
2018-May-11 01:29N 09°23' W 079°56'0 0.0
2018-May-11 00:59N 09°23' W 079°56'0 0.0
2018-May-11 00:29N 09°23' W 079°56'0 0.0
2018-May-10 23:59N 09°23' W 079°56'0 0.0
2018-May-10 23:29N 09°23' W 079°56'0 0.0
2018-May-10 22:59N 09°23' W 079°56'0 0.1
2018-May-10 22:29N 09°23' W 079°56'0 0.1
2018-May-10 21:59N 09°23' W 079°56'0 0.1
2018-May-10 21:29N 09°23' W 079°56'0 0.1
2018-May-10 20:59N 09°23' W 079°56'0 0.1
2018-May-10 20:29N 09°23' W 079°56'0 0.0
2018-May-10 19:59N 09°23' W 079°56'0 0.1
2018-May-10 19:29N 09°23' W 079°56'0 0.0
2018-May-10 18:59N 09°23' W 079°56'0 0.0
2018-May-10 18:29N 09°23' W 079°56'0 0.0
2018-May-10 17:59N 09°23' W 079°56'0 0.1
2018-May-10 17:29N 09°23' W 079°56'0 0.1
2018-May-10 17:00N 09°23' W 079°56'0 0.0
2018-May-10 16:23N 09°23' W 079°56'0 0.1
2018-May-10 15:56N 09°23' W 079°56'0 0.1
2018-May-10 15:29N 09°23' W 079°56'0 0.9
2018-May-10 14:58N 09°22' W 079°56'0 0.2
2018-May-10 14:28N 09°22' W 079°56'0 0.1
2018-May-10 13:59N 09°22' W 079°56'0 0.3
2018-May-10 13:30N 09°22' W 079°56'1 1.6
2018-May-10 13:00N 09°22' W 079°55'3 5.6
2018-May-10 12:29N 09°25' W 079°55'2 4.7
2018-May-10 11:57N 09°27' W 079°56'0 0.0
2018-May-10 11:30N 09°27' W 079°56'0 0.0
2018-May-10 10:51N 09°27' W 079°56'0 0.0
2018-May-10 10:27N 09°27' W 079°56'0 0.0
2018-May-10 10:00N 09°27' W 079°56'0 0.0
2018-May-10 09:30N 09°27' W 079°56'0 0.0
2018-May-10 08:39N 09°27' W 079°56'0 0.0
2018-May-10 08:24N 09°27' W 079°56'0 0.0
2018-May-10 08:00N 09°27' W 079°56'0 0.0
2018-May-10 07:30N 09°27' W 079°56'0 0.0
2018-May-10 06:51N 09°27' W 079°56'0 0.0
2018-May-10 06:30N 09°27' W 079°56'0 0.0
2018-May-10 06:00N 09°27' W 079°56'0 0.0
2018-May-10 05:27N 09°27' W 079°56'0 0.0
2018-May-10 05:00N 09°27' W 079°56'0 0.0
2018-May-10 04:30N 09°27' W 079°56'0 0.0
2018-May-10 04:00N 09°27' W 079°56'0 0.0
2018-May-10 03:27N 09°27' W 079°56'0 0.0
2018-May-10 03:00N 09°27' W 079°56'0 0.0
2018-May-10 02:30N 09°27' W 079°56'0 0.0
2018-May-10 02:00N 09°27' W 079°56'0 0.0
2018-May-10 01:27N 09°27' W 079°56'0 0.0
2018-May-10 01:00N 09°27' W 079°56'0 0.0
2018-May-10 00:27N 09°27' W 079°56'0 0.0
2018-May-10 00:00N 09°27' W 079°56'0 0.0
2018-May-09 23:21N 09°27' W 079°56'0 0.0
2018-May-09 22:57N 09°27' W 079°56'0 0.0
2018-May-09 22:30N 09°27' W 079°56'0 0.0
2018-May-09 21:57N 09°27' W 079°56'0 0.0
2018-May-09 21:30N 09°27' W 079°56'0 0.0
2018-May-09 21:00N 09°27' W 079°56'0 0.0
2018-May-09 20:30N 09°27' W 079°56'0 0.0
2018-May-09 19:54N 09°27' W 079°56'0 0.0
2018-May-09 19:27N 09°27' W 079°56'0 0.0
2018-May-09 19:00N 09°27' W 079°56'0 0.0
2018-May-09 17:03N 09°27' W 079°56'0 0.0
2018-May-09 17:00N 09°27' W 079°56'0 0.0
2018-May-09 16:30N 09°27' W 079°56'0 0.0
2018-May-09 15:57N 09°27' W 079°56'0 0.0
2018-May-09 15:30N 09°27' W 079°56'0 0.0
2018-May-09 14:54N 09°27' W 079°56'0 0.0
2018-May-09 14:27N 09°27' W 079°56'0 0.0
2018-May-09 14:00N 09°27' W 079°56'0 0.0
2018-May-09 13:30N 09°27' W 079°56'0 0.0
2018-May-09 13:00N 09°27' W 079°56'0 0.0
2018-May-09 12:27N 09°27' W 079°56'0 0.0
2018-May-09 11:57N 09°27' W 079°56'0 0.0
2018-May-09 11:27N 09°27' W 079°56'0 0.0
2018-May-09 10:54N 09°27' W 079°56'0 0.0
2018-May-09 10:27N 09°27' W 079°56'0 0.0
2018-May-09 10:00N 09°27' W 079°56'0 0.0
2018-May-09 08:42N 09°27' W 079°56'0 0.0
2018-May-09 08:27N 09°27' W 079°56'0 0.0
2018-May-09 07:54N 09°27' W 079°56'0 0.0
2018-May-09 07:27N 09°27' W 079°56'0 0.0
2018-May-09 06:57N 09°27' W 079°56'0 0.0
2018-May-09 06:12N 09°27' W 079°56'0 0.0
2018-May-09 05:54N 09°27' W 079°56'0 0.0
2018-May-09 05:06N 09°27' W 079°56'0 0.0
2018-May-09 04:48N 09°27' W 079°56'0 0.0
2018-May-09 04:09N 09°27' W 079°56'0 0.0
2018-May-09 03:48N 09°27' W 079°56'0 0.0
2018-May-09 03:15N 09°27' W 079°56'0 0.1
2018-May-09 03:00N 09°27' W 079°56'0 0.0
2018-May-09 02:30N 09°27' W 079°56'0 0.3
2018-May-09 02:00N 09°27' W 079°56'3 6.5
2018-May-09 01:29N 09°30' W 079°54'  
2018-May-04 19:25N 11°02' W 074°49'0 0.0
2018-May-04 18:58N 11°02' W 074°49'0 0.0
2018-May-04 12:43N 11°02' W 074°49'0 0.0
2018-May-04 12:28N 11°02' W 074°49'0 0.0
2018-May-04 11:58N 11°02' W 074°49'0 0.0
2018-May-04 11:22N 11°02' W 074°49'0 0.0
2018-May-04 10:55N 11°02' W 074°49'6 0.2
2018-May-03 07:19N 11°07' W 074°52'  
Track history (hours):
 
Tides and Currents Weather Stations Pressure Air Temp Water Temp Dewpoint Dewpoint Depression Visibility Wind Speed Wind Dir Waves Ship Positions

Four Rigoletto

Last reported at 2018-May-12 19:32 UTC. Time now 2018-May-27 08:10 UTC.
Position N 09°13' W 079°55'.
Warning: this ship's position is 14 days out of date.

Length 181 m; draft 9 m.

Type: Cargo ship. MMSI: 248189100.

Date/timePositionNaut miles runAvg speedWind from/ knotsBaromVisibWave heightAir tempDewpointWater temp
2018-May-12 19:32N 09°13' W 079°55'0 9.2
2018-May-12 19:29N 09°13' W 079°55'1 1.5
2018-May-12 18:43N 09°14' W 079°56'0 0.0
2018-May-12 18:28N 09°14' W 079°56'0 0.0
2018-May-12 17:58N 09°14' W 079°56'0 0.0
2018-May-12 17:25N 09°14' W 079°56'0 0.0
2018-May-12 16:58N 09°14' W 079°56'0 0.0
2018-May-12 16:22N 09°14' W 079°56'0 0.0
2018-May-12 15:58N 09°14' W 079°56'0 0.0
2018-May-12 13:34N 09°14' W 079°56'0 0.0
2018-May-12 13:22N 09°14' W 079°56'0 0.0
2018-May-12 12:55N 09°14' W 079°56'0 0.0
2018-May-12 10:26N 09°14' W 079°56'0 0.0
2018-May-12 09:56N 09°14' W 079°56'0 0.0
2018-May-12 09:29N 09°14' W 079°56'0 0.0
2018-May-12 09:00N 09°14' W 079°56'0 0.0
2018-May-12 08:04N 09°14' W 079°56'0 0.0
2018-May-12 08:00N 09°14' W 079°56'0 0.0
2018-May-12 07:30N 09°14' W 079°56'0 0.0
2018-May-12 07:00N 09°14' W 079°56'0 0.1
2018-May-12 06:30N 09°14' W 079°56'0 0.1
2018-May-12 06:00N 09°14' W 079°56'0 0.1
2018-May-12 05:30N 09°14' W 079°56'0 0.0
2018-May-12 05:00N 09°14' W 079°56'0 0.0
2018-May-12 04:29N 09°14' W 079°56'0 0.0
2018-May-12 04:00N 09°14' W 079°56'0 0.0
2018-May-12 03:28N 09°14' W 079°56'0 0.0
2018-May-12 03:00N 09°14' W 079°56'0 0.0
2018-May-12 02:30N 09°14' W 079°56'0 0.0
2018-May-12 02:00N 09°14' W 079°56'0 0.0
2018-May-12 01:29N 09°14' W 079°56'0 0.0
2018-May-12 01:00N 09°14' W 079°56'0 0.0
2018-May-12 00:30N 09°14' W 079°56'0 0.1
2018-May-12 00:00N 09°14' W 079°56'0 0.1
2018-May-11 23:30N 09°14' W 079°56'0 0.0
2018-May-11 23:00N 09°14' W 079°56'0 0.0
2018-May-11 22:17N 09°14' W 079°56'0 0.0
2018-May-11 21:59N 09°14' W 079°56'0 0.0
2018-May-11 21:25N 09°14' W 079°56'0 0.0
2018-May-11 20:57N 09°14' W 079°56'0 0.0
2018-May-11 20:30N 09°14' W 079°56'0 0.0
2018-May-11 20:00N 09°14' W 079°56'0 0.0
2018-May-11 19:28N 09°14' W 079°56'0 0.0
2018-May-11 18:58N 09°14' W 079°56'0 0.1
2018-May-11 18:30N 09°14' W 079°56'0 0.1
2018-May-11 18:00N 09°14' W 079°56'0 0.0
2018-May-11 17:29N 09°14' W 079°56'0 0.1
2018-May-11 17:00N 09°14' W 079°56'0 0.0
2018-May-11 16:28N 09°14' W 079°56'0 0.1
2018-May-11 15:31N 09°14' W 079°56'0 0.1
2018-May-11 15:16N 09°14' W 079°56'0 0.1
2018-May-11 14:58N 09°14' W 079°56'0 0.0
2018-May-11 14:13N 09°14' W 079°56'0 0.0
2018-May-11 13:58N 09°14' W 079°56'0 0.0
2018-May-11 12:29N 09°14' W 079°56'0 0.0
2018-May-11 11:36N 09°14' W 079°56'0 0.1
2018-May-11 11:30N 09°14' W 079°56'0 0.0
2018-May-11 11:00N 09°14' W 079°56'0 0.0
2018-May-11 10:30N 09°14' W 079°56'0 0.0
2018-May-11 10:00N 09°14' W 079°56'0 0.0
2018-May-11 09:29N 09°14' W 079°56'0 0.0
2018-May-11 08:51N 09°14' W 079°56'0 0.0
2018-May-11 08:30N 09°14' W 079°56'0 0.1
2018-May-11 08:00N 09°14' W 079°56'0 0.1
2018-May-11 07:30N 09°14' W 079°56'0 0.1
2018-May-11 07:00N 09°14' W 079°56'2 3.9
2018-May-11 06:30N 09°16' W 079°55'0 0.8
2018-May-11 06:00N 09°16' W 079°55'0 0.5
2018-May-11 05:30N 09°17' W 079°55'1 1.4
2018-May-11 05:00N 09°17' W 079°55'2 4.6
2018-May-11 04:30N 09°20' W 079°55'3 6.4
2018-May-11 04:00N 09°23' W 079°56'0 0.1
2018-May-11 03:29N 09°23' W 079°56'0 0.0
2018-May-11 02:59N 09°23' W 079°56'0 0.1
2018-May-11 02:30N 09°23' W 079°56'0 0.0
2018-May-11 01:59N 09°23' W 079°56'0 0.0
2018-May-11 01:29N 09°23' W 079°56'0 0.0
2018-May-11 00:59N 09°23' W 079°56'0 0.0
2018-May-11 00:29N 09°23' W 079°56'0 0.0
2018-May-10 23:59N 09°23' W 079°56'0 0.0
2018-May-10 23:29N 09°23' W 079°56'0 0.0
2018-May-10 22:59N 09°23' W 079°56'0 0.1
2018-May-10 22:29N 09°23' W 079°56'0 0.1
2018-May-10 21:59N 09°23' W 079°56'0 0.1
2018-May-10 21:29N 09°23' W 079°56'0 0.1
2018-May-10 20:59N 09°23' W 079°56'0 0.1
2018-May-10 20:29N 09°23' W 079°56'0 0.0
2018-May-10 19:59N 09°23' W 079°56'0 0.1
2018-May-10 19:29N 09°23' W 079°56'0 0.0
2018-May-10 18:59N 09°23' W 079°56'0 0.0
2018-May-10 18:29N 09°23' W 079°56'0 0.0
2018-May-10 17:59N 09°23' W 079°56'0 0.1
2018-May-10 17:29N 09°23' W 079°56'0 0.1
2018-May-10 17:00N 09°23' W 079°56'0 0.0
2018-May-10 16:23N 09°23' W 079°56'0 0.1
2018-May-10 15:56N 09°23' W 079°56'0 0.1
2018-May-10 15:29N 09°23' W 079°56'0 0.9
2018-May-10 14:58N 09°22' W 079°56'0 0.2
2018-May-10 14:28N 09°22' W 079°56'0 0.1
2018-May-10 13:59N 09°22' W 079°56'0 0.3
2018-May-10 13:30N 09°22' W 079°56'1 1.6
2018-May-10 13:00N 09°22' W 079°55'3 5.6
2018-May-10 12:29N 09°25' W 079°55'2 4.7
2018-May-10 11:57N 09°27' W 079°56'0 0.0
2018-May-10 11:30N 09°27' W 079°56'0 0.0
2018-May-10 10:51N 09°27' W 079°56'0 0.0
2018-May-10 10:27N 09°27' W 079°56'0 0.0
2018-May-10 10:00N 09°27' W 079°56'0 0.0
2018-May-10 09:30N 09°27' W 079°56'0 0.0
2018-May-10 08:39N 09°27' W 079°56'0 0.0
2018-May-10 08:24N 09°27' W 079°56'0 0.0
2018-May-10 08:00N 09°27' W 079°56'0 0.0
2018-May-10 07:30N 09°27' W 079°56'0 0.0
2018-May-10 06:51N 09°27' W 079°56'0 0.0
2018-May-10 06:30N 09°27' W 079°56'0 0.0
2018-May-10 06:00N 09°27' W 079°56'0 0.0
2018-May-10 05:27N 09°27' W 079°56'0 0.0
2018-May-10 05:00N 09°27' W 079°56'0 0.0
2018-May-10 04:30N 09°27' W 079°56'0 0.0
2018-May-10 04:00N 09°27' W 079°56'0 0.0
2018-May-10 03:27N 09°27' W 079°56'0 0.0
2018-May-10 03:00N 09°27' W 079°56'0 0.0
2018-May-10 02:30N 09°27' W 079°56'0 0.0
2018-May-10 02:00N 09°27' W 079°56'0 0.0
2018-May-10 01:27N 09°27' W 079°56'0 0.0
2018-May-10 01:00N 09°27' W 079°56'0 0.0
2018-May-10 00:27N 09°27' W 079°56'0 0.0
2018-May-10 00:00N 09°27' W 079°56'0 0.0
2018-May-09 23:21N 09°27' W 079°56'0 0.0
2018-May-09 22:57N 09°27' W 079°56'0 0.0
2018-May-09 22:30N 09°27' W 079°56'0 0.0
2018-May-09 21:57N 09°27' W 079°56'0 0.0
2018-May-09 21:30N 09°27' W 079°56'0 0.0
2018-May-09 21:00N 09°27' W 079°56'0 0.0
2018-May-09 20:30N 09°27' W 079°56'0 0.0
2018-May-09 19:54N 09°27' W 079°56'0 0.0
2018-May-09 19:27N 09°27' W 079°56'0 0.0
2018-May-09 19:00N 09°27' W 079°56'0 0.0
2018-May-09 17:03N 09°27' W 079°56'0 0.0
2018-May-09 17:00N 09°27' W 079°56'0 0.0
2018-May-09 16:30N 09°27' W 079°56'0 0.0
2018-May-09 15:57N 09°27' W 079°56'0 0.0
2018-May-09 15:30N 09°27' W 079°56'0 0.0
2018-May-09 14:54N 09°27' W 079°56'0 0.0
2018-May-09 14:27N 09°27' W 079°56'0 0.0
2018-May-09 14:00N 09°27' W 079°56'0 0.0
2018-May-09 13:30N 09°27' W 079°56'0 0.0
2018-May-09 13:00N 09°27' W 079°56'0 0.0
2018-May-09 12:27N 09°27' W 079°56'0 0.0
2018-May-09 11:57N 09°27' W 079°56'0 0.0
2018-May-09 11:27N 09°27' W 079°56'0 0.0
2018-May-09 10:54N 09°27' W 079°56'0 0.0
2018-May-09 10:27N 09°27' W 079°56'0 0.0
2018-May-09 10:00N 09°27' W 079°56'0 0.0
2018-May-09 08:42N 09°27' W 079°56'0 0.0
2018-May-09 08:27N 09°27' W 079°56'0 0.0
2018-May-09 07:54N 09°27' W 079°56'0 0.0
2018-May-09 07:27N 09°27' W 079°56'0 0.0
2018-May-09 06:57N 09°27' W 079°56'0 0.0
2018-May-09 06:12N 09°27' W 079°56'0 0.0
2018-May-09 05:54N 09°27' W 079°56'0 0.0
2018-May-09 05:06N 09°27' W 079°56'0 0.0
2018-May-09 04:48N 09°27' W 079°56'0 0.0
2018-May-09 04:09N 09°27' W 079°56'0 0.0
2018-May-09 03:48N 09°27' W 079°56'0 0.0
2018-May-09 03:15N 09°27' W 079°56'0 0.1
2018-May-09 03:00N 09°27' W 079°56'0 0.0
2018-May-09 02:30N 09°27' W 079°56'0 0.3
2018-May-09 02:00N 09°27' W 079°56'3 6.5
2018-May-09 01:29N 09°30' W 079°54'  
2018-May-04 19:25N 11°02' W 074°49'0 0.0
2018-May-04 18:58N 11°02' W 074°49'0 0.0
2018-May-04 12:43N 11°02' W 074°49'0 0.0
2018-May-04 12:28N 11°02' W 074°49'0 0.0
2018-May-04 11:58N 11°02' W 074°49'0 0.0
2018-May-04 11:22N 11°02' W 074°49'0 0.0
2018-May-04 10:55N 11°02' W 074°49'6 0.2
2018-May-03 07:19N 11°07' W 074°52'  

Dump ship's entire track history